MMSD/SJD METAR and TAF weather

Enter ICAO airport designator
Station Type Date Time Source
MMSD METAR 2022/11/30 04:47 UTC NOAA

MMSD 300447Z 35004KT 10SM SKC 19/14 A2997 RMK CI


Station Type Date Time Source
MMSD Decoded METAR 2022/11/30 04:47 UTC NOAA

San Jose Del Cabo , Mexico (MMSD) 23-09N 109-42W
Nov 29, 2022 - 11:47 PM EST / 2022.11.30 0447 UTC
Wind: from the N (350 degrees) at 5 MPH (4 KT):0
Visibility: 10 mile(s):0
Sky conditions: clear
Temperature: 66 F (19 C)
Dew Point: 57 F (14 C)
Relative Humidity: 72%
Pressure (altimeter): 29.97 in. Hg (1014 hPa)
ob: MMSD 300447Z 35004KT 10SM SKC 19/14 A2997 RMK CI
cycle: 5

Station Type Date Time Source
MMSD TAF 2022/11/30 06:22 UTC NOAA

TAF MMSD 300515Z 3006/0106 34005KT P6SM SKC
FM301800 15010KT P6SM SKC
FM010300 00000KT P6SM SKC

Example: see airport list